Atascocita, Texas
Current Conditions -  °F | °C
As of 3:53 PM on Sunday 23 Nov 2014 (Local Time) from KIAH Reporting Station
Clear Clear  
Wind Chill: 79°   Ceiling: Unl
Heat Index: 79°   Visibility: 10mi
Dew Point: 47°   Wind: 14mph
Humidity: 32%   Direction: 230°SW
Pressure: 29.54"   Gusts: 25mph
Location:  29.9871°N, 95.1826°W
Report Text: KIAH 232153Z 23012G22KT 10SM CLR 26/08 A2954 RMK AO2 SLP001 T02610083
Loading
Personal Weather Stations






























Interactive Weather Map New forecast layout! Learn more

10-Day Weather Forecast

Advertisements
Track Severe Weather on mobile